Pagrindinis puslapis
METAR-TAF:

METAR-TAF

Oro uostai :

Key Lake, Saskačevanas, Kanada

platuma: 57-15N, ilguma: 105-37W, Aukštis: 509 m

Dabartinis oras

Ataskaita buvo paskelbta 45 minutes, ne 09:00 UTC
Vėjas 6 kt iš Rytų
Temperatūra 4°C
Drėgmė 87%
Slėgis 1017 hPa
Matomumas: 14.5 km
Mažai debesys ne aukštis 2200 ft
Išsisklaidę debesys ne aukštis 13000 ft

METAR: CYKJ 050900Z AUTO 08006KT 9SM FEW022 SCT130 04/02 A3003 RMK SLP190

Laikas: 03:45 (09:45 UTC)

Prognozė

Ataskaita buvo paskelbta 7 minutes, ne 09:38 UTC
Prognozė galioja nuo 05 metu 10 UTC su 05 metu 22 UTC
Vėjas 6 kt iš Rytų
Matomumas: 10 km
Mažai debesys ne aukštis 2000 ft
Išsisklaidę debesys ne aukštis 13000 ft
Tapsmas
nuo 05 metu 19 UTC su 05 metu 21 UTC
Vėjas 10 kt iš Rytų/Pietryčių

TAF: CYKJ 050938Z 0510/0522 08006KT P6SM FEW020 SCT130 BECMG 0519/0521 12010KT RMK FCST BASED ON AUTO OBS. NXT FCST BY 051300Z

Orai ataskaitas ir orų prognozės (METAR, TAF).

turimą stotys yra geltonos ir raudonos taškus žemėlapyje.

Perkelti pele per norėdami pamatyti stoties vardą.

Tada spustelėkite, norėdami matyti oro stebėjimo ir prognozės.

Norėdami pakeisti žemėlapį: spustelėkite ant žalios mygtukų su juodo kryžiaus žemyn,; žalią mygtuką su brūkšneliu, jei norite nutolinti; arba žalių rodyklių gretimoms žemėlapius.


METAR-TAF: